Terminal Aerodrome Forecast
Issued by NWS Atlanta, GA

Home | Current Version | Previous Version | Text Only | Print | Product List | Glossary On
Versions: 1 2 3 4 5 6 7 8 9 10 11 12 13 14 15 16 17 18 19 20 21 22 23 24 25 26 27 28 29 30 31 32 33 34 35 36 37 38 39 40 41 42
990
FTUS42 KFFC 262345
TAFATL
TAF
KATL 262345Z 2700/2806 17008KT P6SM VCSH FEW045 FEW080 BKN250
     FM270200 17004KT P6SM SCT040 BKN200
     FM271100 11006KT P6SM BKN006 OVC250
     FM271400 11008KT P6SM BKN012
     FM271600 11008KT P6SM VCSH BKN025 OVC180
     FM272100 10010KT P6SM -SHRA OVC030 PROB30 2721/2801 4SM -TSRA
      OVC025CB=

USA.gov is the U.S. government's official web portal to all federal, state and local government web resources and services.